DLH99F EDDF-LEPA
Flight info
| Callsign | DLH99F |
|---|---|
| Flight time | N/A |
| Altitude | 35000 |
| Route | ANEKI2L/18 ANEKI Y163 HERBI Y164 MOPAN DCT LUTIX/N0453F370 DCT BENOT DCT NEMOS DCT GEVEA DCT INCUS DCT BALSI DCT RETNO DCT TUPOX DCT MTG DCT DIVKO DCT VATIR DCT PIVUS DCT BODEQ DCT VERSO L129 LUNIK |
| Aircraft | A321/M-SDE2E3FGIJ1LORWXYZ/HB1 |
Departure
| Time | 2026-05-05 11:09 |
|---|---|
| Airport | Frankfurt Main Airport (EDDF) |
Arrival
| Time | N/A |
|---|---|
| Airport | Palma de Mallorca Airport (LEPA) |
| Time | Latitude | Longitude | Altitude | Speed | Heading |
|---|---|---|---|---|---|
| 2026-05-05 10:18 | 50.04918 | 8.57083 | 356 ft | 0 kts | 97° |
| 2026-05-05 11:00 | 50.04917 | 8.57090 | 363 ft | 1 kts | 108° |
| 2026-05-05 11:01 | 50.04909 | 8.57098 | 359 ft | 2 kts | 152° |
| 2026-05-05 11:01 | 50.04888 | 8.57096 | 357 ft | 4 kts | 189° |
| 2026-05-05 11:01 | 50.04853 | 8.57076 | 361 ft | 6 kts | 203° |
| 2026-05-05 11:01 | 50.04806 | 8.57043 | 358 ft | 8 kts | 204° |
| 2026-05-05 11:02 | 50.04748 | 8.57002 | 357 ft | 10 kts | 205° |
| 2026-05-05 11:02 | 50.04679 | 8.56952 | 360 ft | 12 kts | 205° |
| 2026-05-05 11:02 | 50.04599 | 8.56908 | 356 ft | 13 kts | 193° |
| 2026-05-05 11:02 | 50.04519 | 8.56879 | 359 ft | 12 kts | 193° |
| 2026-05-05 11:03 | 50.04450 | 8.56814 | 361 ft | 13 kts | 240° |
| 2026-05-05 11:03 | 50.04414 | 8.56671 | 358 ft | 16 kts | 250° |
| 2026-05-05 11:03 | 50.04373 | 8.56500 | 359 ft | 18 kts | 250° |
| 2026-05-05 11:03 | 50.04326 | 8.56305 | 362 ft | 20 kts | 250° |
| 2026-05-05 11:04 | 50.04276 | 8.56093 | 361 ft | 22 kts | 249° |
| 2026-05-05 11:04 | 50.04222 | 8.55868 | 361 ft | 23 kts | 250° |
| 2026-05-05 11:04 | 50.04165 | 8.55629 | 357 ft | 24 kts | 249° |
| 2026-05-05 11:04 | 50.04105 | 8.55377 | 358 ft | 25 kts | 249° |
| 2026-05-05 11:05 | 50.04044 | 8.55125 | 356 ft | 25 kts | 249° |
| 2026-05-05 11:05 | 50.03982 | 8.54866 | 354 ft | 26 kts | 250° |
| 2026-05-05 11:05 | 50.03916 | 8.54589 | 350 ft | 28 kts | 249° |
| 2026-05-05 11:05 | 50.03834 | 8.54311 | 351 ft | 28 kts | 236° |
| 2026-05-05 11:06 | 50.03754 | 8.54034 | 349 ft | 29 kts | 250° |
| 2026-05-05 11:06 | 50.03684 | 8.53747 | 353 ft | 28 kts | 249° |
| 2026-05-05 11:06 | 50.03619 | 8.53476 | 337 ft | 27 kts | 250° |
| 2026-05-05 11:06 | 50.03556 | 8.53218 | 336 ft | 22 kts | 249° |
| 2026-05-05 11:07 | 50.03508 | 8.53020 | 335 ft | 17 kts | 249° |
| 2026-05-05 11:07 | 50.03463 | 8.52848 | 335 ft | 17 kts | 247° |
| 2026-05-05 11:07 | 50.03418 | 8.52674 | 332 ft | 14 kts | 248° |
| 2026-05-05 11:07 | 50.03367 | 8.52595 | 335 ft | 10 kts | 188° |
| 2026-05-05 11:08 | 50.03276 | 8.52595 | 332 ft | 23 kts | 180° |
| 2026-05-05 11:08 | 50.02846 | 8.52599 | 336 ft | 98 kts | 179° |
| 2026-05-05 11:08 | 50.01940 | 8.52609 | 334 ft | 159 kts | 179° |
| 2026-05-05 11:08 | 50.00727 | 8.52620 | 734 ft | 176 kts | 179° |
| 2026-05-05 11:09 | 49.99508 | 8.52665 | 1533 ft | 176 kts | 178° |
| 2026-05-05 11:09 | 49.98240 | 8.52751 | 1985 ft | 192 kts | 177° |
| 2026-05-05 11:09 | 49.96832 | 8.52856 | 2274 ft | 213 kts | 177° |
| 2026-05-05 11:09 | 49.95291 | 8.52967 | 2649 ft | 228 kts | 177° |
| 2026-05-05 11:10 | 49.93699 | 8.53078 | 3403 ft | 229 kts | 178° |
| 2026-05-05 11:10 | 49.92107 | 8.53187 | 4206 ft | 230 kts | 178° |
| 2026-05-05 11:10 | 49.90505 | 8.53297 | 5011 ft | 231 kts | 178° |
| 2026-05-05 11:10 | 49.88897 | 8.53409 | 5802 ft | 232 kts | 178° |
| 2026-05-05 11:11 | 49.87295 | 8.53518 | 6547 ft | 235 kts | 178° |
| 2026-05-05 11:11 | 49.85635 | 8.53636 | 7282 ft | 237 kts | 177° |
| 2026-05-05 11:11 | 49.83983 | 8.53761 | 7988 ft | 239 kts | 177° |
| 2026-05-05 11:11 | 49.82310 | 8.53878 | 8694 ft | 242 kts | 177° |
| 2026-05-05 11:12 | 49.80644 | 8.53990 | 9398 ft | 244 kts | 177° |
| 2026-05-05 11:12 | 49.78936 | 8.54105 | 10077 ft | 247 kts | 177° |
| 2026-05-05 11:12 | 49.77198 | 8.54044 | 10599 ft | 257 kts | 184° |
| 2026-05-05 11:12 | 49.75340 | 8.53796 | 10794 ft | 280 kts | 185° |
| 2026-05-05 11:13 | 49.73322 | 8.53518 | 10949 ft | 302 kts | 185° |
| 2026-05-05 11:13 | 49.71150 | 8.53224 | 11080 ft | 324 kts | 185° |
| 2026-05-05 11:13 | 49.68862 | 8.52921 | 11450 ft | 335 kts | 185° |
| 2026-05-05 11:13 | 49.67288 | 8.52713 | 11839 ft | 338 kts | 185° |
| 2026-05-05 11:14 | 49.64969 | 8.52405 | 12466 ft | 341 kts | 185° |
| 2026-05-05 11:14 | 49.62598 | 8.52089 | 13113 ft | 343 kts | 185° |
| 2026-05-05 11:14 | 49.60212 | 8.51772 | 13747 ft | 346 kts | 185° |
| 2026-05-05 11:14 | 49.57806 | 8.51455 | 14311 ft | 348 kts | 185° |
| 2026-05-05 11:15 | 49.55384 | 8.51136 | 14884 ft | 350 kts | 185° |
| 2026-05-05 11:15 | 49.52948 | 8.50816 | 15459 ft | 353 kts | 185° |
| 2026-05-05 11:15 | 49.50495 | 8.50492 | 16030 ft | 355 kts | 185° |
| 2026-05-05 11:15 | 49.48026 | 8.50168 | 16596 ft | 357 kts | 185° |
| 2026-05-05 11:16 | 49.45544 | 8.49846 | 17147 ft | 359 kts | 185° |
| 2026-05-05 11:16 | 49.43044 | 8.49521 | 17705 ft | 362 kts | 185° |
| 2026-05-05 11:16 | 49.40531 | 8.49189 | 18252 ft | 363 kts | 185° |
| 2026-05-05 11:16 | 49.38005 | 8.48855 | 18735 ft | 366 kts | 185° |
| 2026-05-05 11:17 | 49.35459 | 8.48524 | 19196 ft | 368 kts | 185° |
| 2026-05-05 11:17 | 49.32900 | 8.48198 | 19642 ft | 371 kts | 185° |
| 2026-05-05 11:17 | 49.30325 | 8.47871 | 20081 ft | 373 kts | 185° |
| 2026-05-05 11:17 | 49.27728 | 8.47536 | 20513 ft | 375 kts | 185° |
| 2026-05-05 11:18 | 49.25117 | 8.47197 | 20943 ft | 378 kts | 185° |
| 2026-05-05 11:18 | 49.22485 | 8.46854 | 21376 ft | 380 kts | 185° |
| 2026-05-05 11:18 | 49.19841 | 8.46510 | 21806 ft | 382 kts | 185° |
| 2026-05-05 11:18 | 49.17183 | 8.46164 | 22252 ft | 384 kts | 185° |
| 2026-05-05 11:19 | 49.14514 | 8.45813 | 22664 ft | 386 kts | 185° |
| 2026-05-05 11:19 | 49.11829 | 8.45461 | 23077 ft | 389 kts | 185° |
| 2026-05-05 11:19 | 49.09127 | 8.45110 | 23466 ft | 391 kts | 185° |
| 2026-05-05 11:19 | 49.06408 | 8.44713 | 23809 ft | 393 kts | 188° |
| 2026-05-05 11:20 | 49.03726 | 8.43848 | 24179 ft | 395 kts | 192° |
| 2026-05-05 11:20 | 49.01045 | 8.42905 | 24551 ft | 396 kts | 192° |
| 2026-05-05 11:20 | 48.98353 | 8.41956 | 24937 ft | 397 kts | 192° |
| 2026-05-05 11:20 | 48.95658 | 8.41012 | 25342 ft | 398 kts | 192° |
| 2026-05-05 11:21 | 48.92956 | 8.40073 | 25747 ft | 399 kts | 192° |
| 2026-05-05 11:21 | 48.90245 | 8.39134 | 26120 ft | 400 kts | 192° |
| 2026-05-05 11:21 | 48.87525 | 8.38192 | 26484 ft | 401 kts | 192° |
| 2026-05-05 11:21 | 48.84800 | 8.37247 | 26842 ft | 402 kts | 192° |
| 2026-05-05 11:22 | 48.82067 | 8.36300 | 27193 ft | 404 kts | 192° |
| 2026-05-05 11:22 | 48.79323 | 8.35352 | 27548 ft | 405 kts | 192° |
| 2026-05-05 11:22 | 48.76609 | 8.34405 | 27889 ft | 407 kts | 192° |
| 2026-05-05 11:22 | 48.73817 | 8.33401 | 28213 ft | 408 kts | 192° |
| 2026-05-05 11:23 | 48.71090 | 8.32400 | 28540 ft | 409 kts | 192° |
| 2026-05-05 11:23 | 48.68315 | 8.31373 | 28877 ft | 411 kts | 192° |
| 2026-05-05 11:23 | 48.65533 | 8.30343 | 29188 ft | 413 kts | 192° |
| 2026-05-05 11:23 | 48.62736 | 8.29310 | 29485 ft | 414 kts | 192° |
| 2026-05-05 11:24 | 48.59934 | 8.28285 | 29813 ft | 415 kts | 192° |
| 2026-05-05 11:24 | 48.57120 | 8.27267 | 30079 ft | 416 kts | 192° |
| 2026-05-05 11:24 | 48.54297 | 8.26251 | 30313 ft | 418 kts | 192° |
| 2026-05-05 11:24 | 48.51466 | 8.25228 | 30545 ft | 419 kts | 192° |
| 2026-05-05 11:25 | 48.48634 | 8.24202 | 30802 ft | 418 kts | 192° |
| 2026-05-05 11:25 | 48.45812 | 8.23175 | 31136 ft | 416 kts | 192° |
| 2026-05-05 11:25 | 48.43005 | 8.22140 | 31475 ft | 414 kts | 193° |
| 2026-05-05 11:25 | 48.40214 | 8.21116 | 31829 ft | 411 kts | 190° |
| 2026-05-05 11:26 | 48.37418 | 8.20227 | 32148 ft | 410 kts | 192° |
| 2026-05-05 11:26 | 48.34645 | 8.19242 | 32447 ft | 410 kts | 192° |
| 2026-05-05 11:26 | 48.31875 | 8.18202 | 32701 ft | 410 kts | 193° |
| 2026-05-05 11:26 | 48.29111 | 8.17147 | 32989 ft | 409 kts | 193° |
| 2026-05-05 11:27 | 48.26355 | 8.16096 | 33277 ft | 409 kts | 193° |
| 2026-05-05 11:27 | 48.23668 | 8.14703 | 33554 ft | 409 kts | 202° |
| 2026-05-05 11:27 | 48.21110 | 8.12827 | 33834 ft | 409 kts | 204° |
| 2026-05-05 11:27 | 48.18561 | 8.10931 | 34087 ft | 408 kts | 204° |
| 2026-05-05 11:28 | 48.16018 | 8.09050 | 34298 ft | 408 kts | 204° |
| 2026-05-05 11:28 | 48.13467 | 8.07169 | 34465 ft | 409 kts | 204° |